sensor_id;sensor_type;location;lat;lon;timestamp;P1;durP1;ratioP1;P2;durP2;ratioP2
47381;SDS011;33128;51.580;5.170;2022-07-30T14:43:31;8.57;;;7.82;;
47381;SDS011;33128;51.580;5.170;2022-07-30T14:45:56;7.20;;;6.90;;
47381;SDS011;33128;51.580;5.170;2022-07-30T14:48:22;7.13;;;6.50;;
47381;SDS011;33128;51.580;5.170;2022-07-30T14:50:48;10.52;;;7.38;;
47381;SDS011;33128;51.580;5.170;2022-07-30T14:53:14;10.07;;;7.20;;
47381;SDS011;33128;51.580;5.170;2022-07-30T14:55:40;7.50;;;6.78;;
47381;SDS011;33128;51.580;5.170;2022-07-30T14:58:06;7.05;;;6.75;;
47381;SDS011;33128;51.580;5.170;2022-07-30T15:00:32;7.45;;;6.53;;
47381;SDS011;33128;51.580;5.170;2022-07-30T15:02:57;9.25;;;5.57;;
47381;SDS011;33128;51.580;5.170;2022-07-30T15:05:26;16.65;;;6.40;;
47381;SDS011;33128;51.580;5.170;2022-07-30T15:07:51;7.22;;;6.60;;
47381;SDS011;33128;51.580;5.170;2022-07-30T15:10:17;7.05;;;6.38;;
47381;SDS011;33128;51.580;5.170;2022-07-30T15:12:48;8.80;;;6.43;;
47381;SDS011;33128;51.580;5.170;2022-07-30T15:15:14;6.72;;;5.60;;
47381;SDS011;33128;51.580;5.170;2022-07-30T15:17:39;5.93;;;5.70;;
47381;SDS011;33128;51.580;5.170;2022-07-30T15:20:08;6.90;;;6.40;;
47381;SDS011;33128;51.580;5.170;2022-07-30T15:22:34;6.82;;;6.22;;
47381;SDS011;33128;51.580;5.170;2022-07-30T15:25:00;7.47;;;6.78;;
47381;SDS011;33128;51.580;5.170;2022-07-30T15:27:26;7.30;;;6.75;;
47381;SDS011;33128;51.580;5.170;2022-07-30T15:29:52;6.80;;;6.28;;
47381;SDS011;33128;51.580;5.170;2022-07-30T15:32:17;7.28;;;6.78;;
47381;SDS011;33128;51.580;5.170;2022-07-30T15:34:43;7.15;;;6.75;;
47381;SDS011;33128;51.580;5.170;2022-07-30T15:37:08;6.85;;;6.40;;
47381;SDS011;33128;51.580;5.170;2022-07-30T15:39:34;6.68;;;6.20;;
47381;SDS011;33128;51.580;5.170;2022-07-30T15:42:00;6.70;;;5.88;;
47381;SDS011;33128;51.580;5.170;2022-07-30T15:44:27;6.70;;;6.20;;
47381;SDS011;33128;51.580;5.170;2022-07-30T15:46:55;6.60;;;6.30;;
47381;SDS011;33128;51.580;5.170;2022-07-30T15:49:21;9.38;;;6.63;;
47381;SDS011;33128;51.580;5.170;2022-07-30T15:51:46;7.40;;;6.50;;
47381;SDS011;33128;51.580;5.170;2022-07-30T15:54:13;6.60;;;6.10;;
47381;SDS011;33128;51.580;5.170;2022-07-30T15:56:39;6.10;;;5.80;;
47381;SDS011;33128;51.580;5.170;2022-07-30T15:59:05;7.25;;;6.78;;
47381;SDS011;33128;51.580;5.170;2022-07-30T16:01:31;6.60;;;6.10;;
47381;SDS011;33128;51.580;5.170;2022-07-30T16:03:57;6.28;;;5.75;;
47381;SDS011;33128;51.580;5.170;2022-07-30T16:06:23;7.50;;;6.28;;
47381;SDS011;33128;51.580;5.170;2022-07-30T16:08:49;6.60;;;6.15;;
47381;SDS011;33128;51.580;5.170;2022-07-30T16:11:14;6.28;;;5.85;;
47381;SDS011;33128;51.580;5.170;2022-07-30T16:13:40;6.10;;;5.80;;
47381;SDS011;33128;51.580;5.170;2022-07-30T16:16:06;6.03;;;5.72;;
47381;SDS011;33128;51.580;5.170;2022-07-30T16:18:34;6.15;;;5.75;;
47381;SDS011;33128;51.580;5.170;2022-07-30T16:21:00;6.32;;;5.70;;
47381;SDS011;33128;51.580;5.170;2022-07-30T16:23:26;6.40;;;5.95;;
47381;SDS011;33128;51.580;5.170;2022-07-30T16:25:52;6.10;;;5.90;;
47381;SDS011;33128;51.580;5.170;2022-07-30T16:28:17;6.40;;;6.10;;
47381;SDS011;33128;51.580;5.170;2022-07-30T16:30:43;6.38;;;5.95;;
47381;SDS011;33128;51.580;5.170;2022-07-30T16:33:10;6.50;;;6.05;;
47381;SDS011;33128;51.580;5.170;2022-07-30T16:35:36;6.50;;;6.20;;
47381;SDS011;33128;51.580;5.170;2022-07-30T16:38:02;6.03;;;5.72;;
47381;SDS011;33128;51.580;5.170;2022-07-30T16:40:28;5.72;;;5.40;;
47381;SDS011;33128;51.580;5.170;2022-07-30T16:42:54;6.07;;;5.78;;
47381;SDS011;33128;51.580;5.170;2022-07-30T16:45:20;6.65;;;6.30;;
47381;SDS011;33128;51.580;5.170;2022-07-30T16:47:45;6.05;;;5.70;;
47381;SDS011;33128;51.580;5.170;2022-07-30T16:50:13;6.85;;;6.05;;
47381;SDS011;33128;51.580;5.170;2022-07-30T16:52:39;6.07;;;5.78;;
47381;SDS011;33128;51.580;5.170;2022-07-30T16:55:04;6.38;;;6.00;;
47381;SDS011;33128;51.580;5.170;2022-07-30T16:57:34;6.15;;;5.70;;
47381;SDS011;33128;51.580;5.170;2022-07-30T16:59:59;6.07;;;5.78;;
47381;SDS011;33128;51.580;5.170;2022-07-30T17:02:25;6.10;;;5.80;;
47381;SDS011;33128;51.580;5.170;2022-07-30T17:04:51;6.38;;;6.07;;
47381;SDS011;33128;51.580;5.170;2022-07-30T17:07:16;7.43;;;5.90;;
47381;SDS011;33128;51.580;5.170;2022-07-30T17:09:42;7.03;;;6.55;;
47381;SDS011;33128;51.580;5.170;2022-07-30T17:12:08;5.65;;;5.30;;
47381;SDS011;33128;51.580;5.170;2022-07-30T17:14:37;6.38;;;5.97;;
47381;SDS011;33128;51.580;5.170;2022-07-30T17:17:04;6.55;;;6.15;;
47381;SDS011;33128;51.580;5.170;2022-07-30T17:19:29;5.75;;;5.45;;
47381;SDS011;33128;51.580;5.170;2022-07-30T17:21:55;6.28;;;5.90;;
47381;SDS011;33128;51.580;5.170;2022-07-30T17:24:20;5.97;;;5.68;;
47381;SDS011;33128;51.580;5.170;2022-07-30T17:26:46;6.80;;;6.28;;
47381;SDS011;33128;51.580;5.170;2022-07-30T17:29:12;6.18;;;5.80;;
47381;SDS011;33128;51.580;5.170;2022-07-30T17:31:39;6.78;;;6.35;;
47381;SDS011;33128;51.580;5.170;2022-07-30T17:34:07;6.90;;;6.40;;
47381;SDS011;33128;51.580;5.170;2022-07-30T17:36:34;6.15;;;5.75;;
47381;SDS011;33128;51.580;5.170;2022-07-30T17:39:00;6.93;;;6.57;;
47381;SDS011;33128;51.580;5.170;2022-07-30T17:41:26;6.18;;;5.88;;
47381;SDS011;33128;51.580;5.170;2022-07-30T17:43:52;7.18;;;6.45;;
47381;SDS011;33128;51.580;5.170;2022-07-30T17:46:18;6.25;;;5.95;;
47381;SDS011;33128;51.580;5.170;2022-07-30T17:48:44;6.55;;;6.05;;
47381;SDS011;33128;51.580;5.170;2022-07-30T17:51:09;6.57;;;6.28;;
47381;SDS011;33128;51.580;5.170;2022-07-30T17:53:37;6.88;;;6.57;;
47381;SDS011;33128;51.580;5.170;2022-07-30T17:56:06;7.10;;;6.70;;
47381;SDS011;33128;51.580;5.170;2022-07-30T17:58:33;7.10;;;6.70;;
47381;SDS011;33128;51.580;5.170;2022-07-30T18:00:59;7.32;;;6.65;;
47381;SDS011;33128;51.580;5.170;2022-07-30T18:03:26;6.63;;;6.20;;
47381;SDS011;33128;51.580;5.170;2022-07-30T18:05:52;6.45;;;6.07;;
47381;SDS011;33128;51.580;5.170;2022-07-30T18:08:20;6.93;;;6.53;;
47381;SDS011;33128;51.580;5.170;2022-07-30T18:10:48;7.13;;;6.57;;
47381;SDS011;33128;51.580;5.170;2022-07-30T18:13:14;7.13;;;6.63;;
47381;SDS011;33128;51.580;5.170;2022-07-30T18:15:40;7.00;;;6.60;;
47381;SDS011;33128;51.580;5.170;2022-07-30T18:18:06;6.80;;;6.50;;
47381;SDS011;33128;51.580;5.170;2022-07-30T18:20:35;6.53;;;6.13;;
47381;SDS011;33128;51.580;5.170;2022-07-30T18:23:04;6.65;;;6.35;;
47381;SDS011;33128;51.580;5.170;2022-07-30T18:25:31;7.00;;;6.60;;
47381;SDS011;33128;51.580;5.170;2022-07-30T18:27:57;6.78;;;6.43;;
47381;SDS011;33128;51.580;5.170;2022-07-30T18:30:25;8.43;;;7.30;;
47381;SDS011;33128;51.580;5.170;2022-07-30T18:32:51;7.30;;;6.72;;
47381;SDS011;33128;51.580;5.170;2022-07-30T18:35:16;8.65;;;7.10;;
47381;SDS011;33128;51.580;5.170;2022-07-30T18:37:42;7.15;;;6.65;;
47381;SDS011;33128;51.580;5.170;2022-07-30T18:40:08;7.68;;;7.18;;
47381;SDS011;33128;51.580;5.170;2022-07-30T18:42:35;6.97;;;6.38;;
47381;SDS011;33128;51.580;5.170;2022-07-30T18:45:01;8.02;;;7.50;;
47381;SDS011;33128;51.580;5.170;2022-07-30T18:47:30;7.53;;;6.93;;
47381;SDS011;33128;51.580;5.170;2022-07-30T18:49:58;7.93;;;7.15;;
47381;SDS011;33128;51.580;5.170;2022-07-30T18:52:24;7.38;;;6.90;;
47381;SDS011;33128;51.580;5.170;2022-07-30T18:54:50;7.30;;;6.90;;
47381;SDS011;33128;51.580;5.170;2022-07-30T18:57:16;7.00;;;6.50;;
47381;SDS011;33128;51.580;5.170;2022-07-30T18:59:41;7.13;;;6.50;;
47381;SDS011;33128;51.580;5.170;2022-07-30T19:02:07;7.18;;;6.55;;
47381;SDS011;33128;51.580;5.170;2022-07-30T19:04:33;7.28;;;6.68;;
47381;SDS011;33128;51.580;5.170;2022-07-30T19:06:58;7.32;;;6.82;;
47381;SDS011;33128;51.580;5.170;2022-07-30T19:09:24;7.25;;;6.80;;
47381;SDS011;33128;51.580;5.170;2022-07-30T19:11:50;7.10;;;6.60;;
47381;SDS011;33128;51.580;5.170;2022-07-30T19:14:16;6.85;;;6.38;;
47381;SDS011;33128;51.580;5.170;2022-07-30T19:16:42;6.70;;;6.30;;
47381;SDS011;33128;51.580;5.170;2022-07-30T19:19:08;6.30;;;6.00;;
47381;SDS011;33128;51.580;5.170;2022-07-30T19:21:36;6.88;;;6.22;;
47381;SDS011;33128;51.580;5.170;2022-07-30T19:24:02;6.70;;;6.20;;
47381;SDS011;33128;51.580;5.170;2022-07-30T19:26:28;6.85;;;6.45;;
47381;SDS011;33128;51.580;5.170;2022-07-30T19:28:53;7.47;;;6.50;;
47381;SDS011;33128;51.580;5.170;2022-07-30T19:31:19;7.20;;;6.70;;
47381;SDS011;33128;51.580;5.170;2022-07-30T19:33:45;6.72;;;6.30;;
47381;SDS011;33128;51.580;5.170;2022-07-30T19:36:10;7.25;;;6.53;;
47381;SDS011;33128;51.580;5.170;2022-07-30T19:38:36;7.40;;;6.90;;
47381;SDS011;33128;51.580;5.170;2022-07-30T19:41:06;7.75;;;7.15;;
47381;SDS011;33128;51.580;5.170;2022-07-30T19:43:31;7.25;;;6.85;;
47381;SDS011;33128;51.580;5.170;2022-07-30T19:45:57;7.65;;;6.95;;
47381;SDS011;33128;51.580;5.170;2022-07-30T19:48:22;7.05;;;6.65;;
47381;SDS011;33128;51.580;5.170;2022-07-30T19:50:48;6.97;;;6.57;;
47381;SDS011;33128;51.580;5.170;2022-07-30T19:53:14;6.80;;;6.50;;
47381;SDS011;33128;51.580;5.170;2022-07-30T19:55:39;6.70;;;6.20;;
47381;SDS011;33128;51.580;5.170;2022-07-30T19:58:05;7.03;;;6.63;;
47381;SDS011;33128;51.580;5.170;2022-07-30T20:00:35;6.65;;;6.35;;
47381;SDS011;33128;51.580;5.170;2022-07-30T20:03:01;6.30;;;6.00;;
47381;SDS011;33128;51.580;5.170;2022-07-30T21:21:03;9.97;;;9.20;;
47381;SDS011;33128;51.580;5.170;2022-07-30T21:23:29;9.82;;;8.98;;
47381;SDS011;33128;51.580;5.170;2022-07-30T21:25:55;9.13;;;8.63;;
47381;SDS011;33128;51.580;5.170;2022-07-30T21:28:21;9.88;;;9.00;;
47381;SDS011;33128;51.580;5.170;2022-07-30T21:30:47;8.88;;;8.20;;
47381;SDS011;33128;51.580;5.170;2022-07-30T21:33:14;9.15;;;8.55;;
47381;SDS011;33128;51.580;5.170;2022-07-30T21:35:39;10.90;;;8.55;;
47381;SDS011;33128;51.580;5.170;2022-07-30T21:38:05;9.70;;;9.15;;
47381;SDS011;33128;51.580;5.170;2022-07-30T21:40:31;9.43;;;8.50;;
47381;SDS011;33128;51.580;5.170;2022-07-30T21:43:00;9.02;;;8.32;;
47381;SDS011;33128;51.580;5.170;2022-07-30T21:45:25;8.75;;;7.95;;
47381;SDS011;33128;51.580;5.170;2022-07-30T21:47:51;9.63;;;8.40;;
47381;SDS011;33128;51.580;5.170;2022-07-30T21:50:17;10.48;;;8.93;;
47381;SDS011;33128;51.580;5.170;2022-07-30T21:52:42;9.75;;;9.15;;
47381;SDS011;33128;51.580;5.170;2022-07-30T21:55:11;10.15;;;9.30;;
47381;SDS011;33128;51.580;5.170;2022-07-30T21:57:37;10.43;;;9.63;;
47381;SDS011;33128;51.580;5.170;2022-07-30T22:00:08;10.75;;;9.95;;
47381;SDS011;33128;51.580;5.170;2022-07-30T22:02:39;10.27;;;9.73;;
47381;SDS011;33128;51.580;5.170;2022-07-30T22:05:05;10.25;;;9.55;;
47381;SDS011;33128;51.580;5.170;2022-07-30T22:07:34;11.00;;;9.82;;
47381;SDS011;33128;51.580;5.170;2022-07-30T22:09:59;10.65;;;9.60;;
47381;SDS011;33128;51.580;5.170;2022-07-30T22:12:25;10.18;;;9.57;;
47381;SDS011;33128;51.580;5.170;2022-07-30T22:14:52;10.50;;;9.80;;
47381;SDS011;33128;51.580;5.170;2022-07-30T22:17:18;10.27;;;9.45;;
47381;SDS011;33128;51.580;5.170;2022-07-30T22:19:44;9.82;;;9.10;;
47381;SDS011;33128;51.580;5.170;2022-07-30T22:22:09;10.38;;;8.98;;
47381;SDS011;33128;51.580;5.170;2022-07-30T22:24:36;8.93;;;8.27;;
47381;SDS011;33128;51.580;5.170;2022-07-30T22:27:02;8.77;;;8.38;;
47381;SDS011;33128;51.580;5.170;2022-07-30T22:29:29;9.23;;;8.73;;
47381;SDS011;33128;51.580;5.170;2022-07-30T22:31:55;9.73;;;9.13;;
47381;SDS011;33128;51.580;5.170;2022-07-30T22:34:21;9.10;;;8.50;;
47381;SDS011;33128;51.580;5.170;2022-07-30T22:36:49;9.40;;;8.60;;
47381;SDS011;33128;51.580;5.170;2022-07-30T22:39:16;8.60;;;8.10;;
47381;SDS011;33128;51.580;5.170;2022-07-30T22:41:41;8.80;;;8.30;;
47381;SDS011;33128;51.580;5.170;2022-07-30T22:44:07;8.88;;;8.20;;
47381;SDS011;33128;51.580;5.170;2022-07-30T22:46:32;9.63;;;8.93;;
47381;SDS011;33128;51.580;5.170;2022-07-30T22:49:01;8.65;;;7.95;;
47381;SDS011;33128;51.580;5.170;2022-07-30T22:51:26;9.15;;;8.40;;
47381;SDS011;33128;51.580;5.170;2022-07-30T22:53:52;9.00;;;8.48;;
47381;SDS011;33128;51.580;5.170;2022-07-30T22:56:18;8.27;;;7.80;;
47381;SDS011;33128;51.580;5.170;2022-07-30T22:58:50;10.02;;;8.68;;
47381;SDS011;33128;51.580;5.170;2022-07-30T23:01:16;9.10;;;8.23;;
47381;SDS011;33128;51.580;5.170;2022-07-30T23:03:41;8.40;;;7.90;;
47381;SDS011;33128;51.580;5.170;2022-07-30T23:06:07;8.65;;;8.15;;
47381;SDS011;33128;51.580;5.170;2022-07-30T23:08:32;7.93;;;7.53;;
47381;SDS011;33128;51.580;5.170;2022-07-30T23:10:58;8.25;;;7.57;;
47381;SDS011;33128;51.580;5.170;2022-07-30T23:13:27;7.15;;;6.78;;
47381;SDS011;33128;51.580;5.170;2022-07-30T23:15:55;8.27;;;7.60;;
47381;SDS011;33128;51.580;5.170;2022-07-30T23:18:21;7.97;;;7.47;;
47381;SDS011;33128;51.580;5.170;2022-07-30T23:20:46;7.30;;;7.00;;
47381;SDS011;33128;51.580;5.170;2022-07-30T23:23:12;7.95;;;7.55;;
47381;SDS011;33128;51.580;5.170;2022-07-30T23:25:37;7.70;;;7.30;;
47381;SDS011;33128;51.580;5.170;2022-07-30T23:28:03;8.30;;;7.78;;
47381;SDS011;33128;51.580;5.170;2022-07-30T23:30:28;8.05;;;7.57;;
47381;SDS011;33128;51.580;5.170;2022-07-30T23:32:54;8.00;;;7.43;;
47381;SDS011;33128;51.580;5.170;2022-07-30T23:35:20;8.38;;;7.93;;
47381;SDS011;33128;51.580;5.170;2022-07-30T23:37:45;7.97;;;7.47;;
47381;SDS011;33128;51.580;5.170;2022-07-30T23:40:11;7.95;;;7.45;;
47381;SDS011;33128;51.580;5.170;2022-07-30T23:42:37;8.00;;;7.60;;
47381;SDS011;33128;51.580;5.170;2022-07-30T23:45:05;8.32;;;7.82;;
47381;SDS011;33128;51.580;5.170;2022-07-30T23:47:31;7.88;;;7.50;;
47381;SDS011;33128;51.580;5.170;2022-07-30T23:49:56;8.23;;;7.75;;
47381;SDS011;33128;51.580;5.170;2022-07-30T23:52:22;8.45;;;7.93;;
47381;SDS011;33128;51.580;5.170;2022-07-30T23:54:48;8.05;;;7.60;;
47381;SDS011;33128;51.580;5.170;2022-07-30T23:57:13;8.18;;;7.68;;
47381;SDS011;33128;51.580;5.170;2022-07-30T23:59:39;8.85;;;8.45;;
